Time;durP1;ratioP1;P1;durP2;ratioP2;P2;SDS_P1;SDS_P2;PMS_P1;PMS_P2;Temp;Humidity;BMP_temperature;BMP_pressure;BME280_temperature;BME280_humidity;BME280_pressure;Samples;Min_cycle;Max_cycle;Signal;HPM_P1;HPM_P2
2021/11/30 00:01:44;;;;;;;9.90;3.40;;;;;;;4.74;94.27;101062.72;5034657;28;20116;-74
2021/11/30 00:04:11;;;;;;;9.85;1.70;;;;;;;4.69;95.68;101069.44;5038412;28;20477;-73
2021/11/30 00:06:37;;;;;;;7.07;1.15;;;;;;;4.69;96.64;101065.13;5027281;28;20064;-74
2021/11/30 00:12:12;;;;;;;;;;;;;;;4.66;99.25;101059.75;5020838;28;20080;-74
2021/11/30 00:14:40;;;;;;;5.93;1.63;;;;;;;4.61;100.00;101048.22;5038306;28;19913;-75
2021/11/30 00:17:08;;;;;;;4.47;1.40;;;;;;;4.61;100.00;101048.22;5034968;28;20414;-75
2021/11/30 00:19:34;;;;;;;9.07;1.52;;;;;;;4.61;100.00;101045.63;5033432;28;20034;-75
2021/11/30 00:22:00;;;;;;;10.32;1.70;;;;;;;4.69;100.00;101039.06;5035481;28;20080;-74
2021/11/30 00:24:29;;;;;;;10.35;1.80;;;;;;;4.71;100.00;101037.41;5038707;28;20041;-74
2021/11/30 00:26:57;;;;;;;12.10;1.98;;;;;;;4.75;100.00;101022.78;5038575;28;20029;-75
2021/11/30 00:29:23;;;;;;;7.78;1.52;;;;;;;4.70;100.00;101014.75;5031922;28;20028;-74
2021/11/30 00:31:52;;;;;;;11.98;2.75;;;;;;;4.70;100.00;101009.53;5030960;28;20477;-74
2021/11/30 00:34:17;;;;;;;6.40;1.77;;;;;;;4.75;100.00;101003.63;5030381;28;20073;-75
2021/11/30 00:36:43;;;;;;;8.20;3.60;;;;;;;4.75;100.00;101007.16;5031581;28;20056;-74
2021/11/30 00:39:08;;;;;;;10.52;2.67;;;;;;;4.78;100.00;100995.97;5033199;28;20037;-75
2021/11/30 00:41:34;;;;;;;14.57;3.08;;;;;;;4.78;100.00;100991.63;5030213;28;20029;-74
2021/11/30 00:44:00;;;;;;;12.80;3.13;;;;;;;4.78;100.00;100989.03;5034000;28;20492;-74
2021/11/30 00:46:38;;;;;;;11.32;3.72;;;;;;;4.78;100.00;100989.03;5030936;28;20029;-75
2021/11/30 00:49:06;;;;;;;17.90;3.17;;;;;;;4.80;100.00;100983.88;5041005;28;20112;-75
2021/11/30 00:51:34;;;;;;;16.42;3.63;;;;;;;4.82;100.00;100979.63;5031367;28;20112;-76
2021/11/30 00:54:02;;;;;;;12.50;3.60;;;;;;;4.87;100.00;100970.25;5032557;28;20100;-75
2021/11/30 00:56:27;;;;;;;11.32;3.55;;;;;;;4.87;100.00;100965.03;5037163;28;20026;-76
2021/11/30 00:58:53;;;;;;;12.80;4.35;;;;;;;4.93;100.00;100970.53;5030680;28;20054;-76
2021/11/30 01:01:20;;;;;;;16.60;4.40;;;;;;;4.98;100.00;100969.00;5030474;28;20058;-76
2021/11/30 01:03:46;;;;;;;11.90;4.38;;;;;;;5.05;100.00;100952.78;5035302;28;20028;-76
2021/11/30 01:06:11;;;;;;;8.50;3.83;;;;;;;5.12;100.00;100953.03;5036429;28;20034;-75
2021/11/30 01:08:38;;;;;;;14.68;4.55;;;;;;;5.16;100.00;100947.13;5034059;28;20405;-76
2021/11/30 01:11:06;;;;;;;17.65;4.55;;;;;;;5.23;100.00;100941.31;5035622;28;20068;-75
2021/11/30 01:13:33;;;;;;;14.73;6.10;;;;;;;5.29;100.00;100933.72;5033804;28;20473;-76
2021/11/30 01:16:01;;;;;;;15.70;6.32;;;;;;;5.30;100.00;100935.47;5027095;28;20473;-76
2021/11/30 01:18:26;;;;;;;18.38;6.13;;;;;;;5.39;100.00;100935.84;5035296;28;20107;-74
2021/11/30 01:20:52;;;;;;;19.27;6.72;;;;;;;5.45;100.00;100934.31;5038192;28;20366;-74
2021/11/30 01:23:19;;;;;;;13.00;7.00;;;;;;;5.51;100.00;100924.13;5034428;28;20037;-73
2021/11/30 01:25:45;;;;;;;17.08;5.72;;;;;;;5.56;100.00;100927.78;5033901;28;20236;-73
2021/11/30 01:28:11;;;;;;;9.60;6.22;;;;;;;5.57;100.00;100914.81;5035981;28;20041;-73
2021/11/30 01:31:02;;;;;;;10.73;6.00;;;;;;;5.60;100.00;100923.56;5040651;28;20056;-74
2021/11/30 01:33:28;;;;;;;15.93;6.53;;;;;;;5.63;100.00;100924.59;5036514;28;20029;-74
2021/11/30 01:35:55;;;;;;;15.43;6.32;;;;;;;5.64;100.00;100928.97;5036121;28;20037;-74
2021/11/30 01:38:20;;;;;;;18.88;6.60;;;;;;;5.68;100.00;100928.28;5035051;28;20508;-74
2021/11/30 01:40:46;;;;;;;13.25;7.22;;;;;;;5.75;100.00;100934.59;5037582;28;20064;-74
2021/11/30 01:43:18;;;;;;;14.18;6.78;;;;;;;5.84;100.00;100926.22;5034954;28;20052;-74
2021/11/30 01:45:56;;;;;;;16.90;7.03;;;;;;;5.90;100.00;100926.44;5040934;28;20120;-75
2021/11/30 01:50:57;;;;;;;16.60;6.05;;;;;;;5.97;100.00;100909.25;5035477;28;20041;-75
2021/11/30 01:53:23;;;;;;;9.65;4.57;;;;;;;6.08;100.00;100903.63;5035948;28;20041;-74
2021/11/30 01:55:49;;;;;;;11.98;3.97;;;;;;;6.16;100.00;100900.41;5028586;28;20040;-74
2021/11/30 01:58:15;;;;;;;9.32;4.03;;;;;;;6.26;100.00;100886.84;5035195;28;20038;-73
2021/11/30 02:00:46;;;;;;;8.07;3.78;;;;;;;6.35;100.00;100897.59;5033601;28;20025;-74
2021/11/30 02:03:13;;;;;;;8.75;4.10;;;;;;;6.41;100.00;100892.56;5033558;28;20052;-75
2021/11/30 02:05:40;;;;;;;11.18;4.18;;;;;;;6.50;100.00;100886.78;5034782;28;20462;-74
2021/11/30 02:08:07;;;;;;;9.50;4.50;;;;;;;6.55;100.00;100879.09;5035751;28;20033;-74
2021/11/30 02:10:34;;;;;;;12.63;4.63;;;;;;;6.64;100.00;100884.63;5034191;28;20029;-74
2021/11/30 02:13:01;;;;;;;9.18;4.18;;;;;;;6.66;100.00;100882.97;5030851;28;20025;-74
2021/11/30 02:15:27;;;;;;;11.23;4.80;;;;;;;6.69;100.00;100893.53;5031408;28;20037;-74
2021/11/30 02:17:55;;;;;;;9.57;4.82;;;;;;;6.71;100.00;100878.75;5039129;28;20029;-74
2021/11/30 02:20:21;;;;;;;15.30;5.70;;;;;;;6.73;100.00;100874.47;5036240;28;20025;-75
2021/11/30 02:22:55;;;;;;;15.50;4.90;;;;;;;6.77;100.00;100875.47;5033171;28;20033;-75
2021/11/30 02:25:21;;;;;;;;;;;;;;;6.82;100.00;100865.16;5032620;28;20045;-75
2021/11/30 02:27:47;;;;;;;14.25;4.38;;;;;;;6.84;100.00;100868.72;5032364;28;19988;-75
2021/11/30 02:30:13;;;;;;;11.63;4.45;;;;;;;6.86;100.00;100859.19;5033678;28;20061;-75
2021/11/30 02:32:38;;;;;;;10.82;4.10;;;;;;;6.90;100.00;100856.72;5042651;28;20111;-74
2021/11/30 02:35:04;;;;;;;12.18;4.18;;;;;;;6.94;100.00;100849.84;5037522;28;20116;-75
2021/11/30 02:37:37;;;;;;;9.25;4.15;;;;;;;7.00;100.00;100850.03;5032509;28;20029;-75
2021/11/30 02:40:05;;;;;;;11.63;3.90;;;;;;;7.05;100.00;100847.56;5036764;28;20024;-74
2021/11/30 02:42:32;;;;;;;8.93;4.38;;;;;;;7.04;100.00;100849.31;5032425;28;20044;-73
2021/11/30 02:44:58;;;;;;;10.52;4.40;;;;;;;7.04;100.00;100836.22;5034005;28;20032;-74
2021/11/30 02:47:24;;;;;;;12.20;4.85;;;;;;;7.07;100.00;100844.16;5036799;28;20496;-74
2021/11/30 02:49:50;;;;;;;12.50;4.03;;;;;;;7.09;100.00;100838.97;5034647;28;20033;-74
2021/11/30 02:52:19;;;;;;;13.18;3.92;;;;;;;7.09;100.00;100842.50;5032707;28;20029;-73
2021/11/30 02:54:48;;;;;;;16.77;4.93;;;;;;;7.12;100.00;100823.34;5034208;28;20483;-73
2021/11/30 02:57:17;;;;;;;14.65;3.70;;;;;;;7.16;100.00;100829.56;5034114;28;20060;-74
2021/11/30 02:59:46;;;;;;;13.32;4.50;;;;;;;7.14;100.00;100824.28;5034847;28;20082;-73
2021/11/30 03:02:17;;;;;;;12.20;4.13;;;;;;;7.16;100.00;100826.94;5032576;28;20025;-72
2021/11/30 03:04:48;;;;;;;17.90;4.03;;;;;;;7.16;100.00;100830.47;5033102;28;20033;-72
2021/11/30 03:07:17;;;;;;;9.98;4.38;;;;;;;7.18;100.00;100831.41;5032033;28;20037;-73
2021/11/30 03:09:43;;;;;;;7.72;3.45;;;;;;;7.23;100.00;100805.34;5032733;28;20044;-73
2021/11/30 03:12:10;;;;;;;11.48;3.60;;;;;;;7.22;100.00;100806.22;5031565;28;20101;-73
2021/11/30 03:14:37;;;;;;;10.55;3.60;;;;;;;7.26;100.00;100808.09;5034232;28;20477;-74
2021/11/30 03:17:04;;;;;;;16.98;3.80;;;;;;;7.27;100.00;100794.16;5030311;28;20041;-74
2021/11/30 03:19:29;;;;;;;7.45;3.10;;;;;;;7.25;100.00;100804.56;5034749;28;20037;-73
2021/11/30 03:21:56;;;;;;;11.85;3.35;;;;;;;7.26;100.00;100797.63;5033399;28;20109;-73
2021/11/30 03:24:22;;;;;;;14.10;3.05;;;;;;;7.30;100.00;100790.72;5030976;28;20387;-73
2021/11/30 03:26:47;;;;;;;10.52;2.83;;;;;;;7.30;100.00;100783.78;5031063;28;20032;-73
2021/11/30 03:29:13;;;;;;;7.53;3.00;;;;;;;7.31;100.00;100780.31;5033059;28;20037;-73
2021/11/30 03:34:09;;;;;;;14.55;3.15;;;;;;;7.36;100.00;100778.69;5032945;28;20037;-73
2021/11/30 03:36:36;;;;;;;12.10;3.97;;;;;;;7.38;100.00;100787.50;5033066;28;20532;-73
2021/11/30 03:39:05;;;;;;;15.85;4.18;;;;;;;7.38;100.00;100779.63;5030524;28;20022;-73
2021/11/30 03:41:33;;;;;;;11.48;4.03;;;;;;;7.41;100.00;100776.22;5030864;28;20079;-73
2021/11/30 03:44:00;;;;;;;12.65;4.63;;;;;;;7.44;100.00;100776.31;5031432;28;20034;-73
2021/11/30 03:46:26;;;;;;;18.75;5.38;;;;;;;7.49;100.00;100764.22;5032769;28;20045;-74
2021/11/30 03:48:51;;;;;;;12.35;6.00;;;;;;;7.50;100.00;100780.81;5033421;28;20079;-74
2021/11/30 03:51:17;;;;;;;26.08;6.63;;;;;;;7.50;100.00;100766.00;5031710;28;20524;-73
2021/11/30 03:53:43;;;;;;;17.73;6.50;;;;;;;7.49;100.00;100772.09;5032733;28;20645;-73
2021/11/30 03:56:09;;;;;;;18.38;6.28;;;;;;;7.50;100.00;100778.19;5026735;28;20052;-73
2021/11/30 03:58:34;;;;;;;23.33;7.70;;;;;;;7.51;100.00;100782.59;5032541;28;20032;-73
2021/11/30 04:01:00;;;;;;;20.83;8.27;;;;;;;7.53;100.00;100771.31;5032464;28;20393;-73
2021/11/30 04:03:28;;;;;;;23.95;8.55;;;;;;;7.58;100.00;100763.59;5032173;28;20105;-72
2021/11/30 04:05:54;;;;;;;22.27;8.85;;;;;;;7.62;100.00;100783.78;5032160;28;20025;-73
2021/11/30 04:08:20;;;;;;;26.00;10.13;;;;;;;7.66;100.00;100783.00;5032195;28;20048;-73
2021/11/30 04:10:46;;;;;;;20.20;9.18;;;;;;;7.67;100.00;100776.94;5030653;28;20030;-72
2021/11/30 04:13:11;;;;;;;28.05;8.57;;;;;;;7.70;100.00;100777.00;5029703;28;20547;-74
2021/11/30 04:15:39;;;;;;;28.38;9.52;;;;;;;7.70;100.00;100773.50;5031201;28;20026;-73
2021/11/30 04:18:05;;;;;;;20.45;8.73;;;;;;;7.74;100.00;100771.00;5031961;28;20583;-72
2021/11/30 04:20:32;;;;;;;27.25;7.90;;;;;;;7.75;100.00;100754.44;5030867;28;20123;-73
2021/11/30 04:22:57;;;;;;;22.77;7.90;;;;;;;7.78;100.00;100758.88;5031218;28;20080;-73
2021/11/30 04:25:23;;;;;;;22.27;8.60;;;;;;;7.78;100.00;100760.63;5031395;28;20045;-73
2021/11/30 04:27:49;;;;;;;20.90;8.20;;;;;;;7.79;100.00;100750.19;5031662;28;20021;-73
2021/11/30 04:30:15;;;;;;;22.98;9.25;;;;;;;7.81;100.00;100743.25;5034121;28;20470;-73
2021/11/30 04:32:41;;;;;;;23.00;8.65;;;;;;;7.83;100.00;100754.66;5031328;28;20079;-72
2021/11/30 04:35:09;;;;;;;18.52;8.20;;;;;;;7.83;100.00;100749.44;5031239;28;20095;-73
2021/11/30 04:37:35;;;;;;;24.48;9.18;;;;;;;7.83;100.00;100745.94;5033295;28;20111;-73
2021/11/30 04:40:00;;;;;;;25.70;8.65;;;;;;;7.83;100.00;100754.66;5036481;28;20032;-73
2021/11/30 04:42:27;;;;;;;22.23;10.60;;;;;;;7.84;100.00;100740.72;5036914;28;20029;-72
2021/11/30 04:47:29;;;;;;;20.42;8.55;;;;;;;7.89;100.00;100735.59;5035488;28;20575;-74
2021/11/30 04:49:58;;;;;;;22.70;8.40;;;;;;;7.93;100.00;100740.06;5032604;28;20039;-74
2021/11/30 04:52:24;;;;;;;26.92;8.82;;;;;;;7.95;100.00;100730.53;5034094;28;20040;-73
2021/11/30 04:54:49;;;;;;;27.23;8.43;;;;;;;7.96;100.00;100720.91;5033243;28;20501;-73
2021/11/30 04:57:15;;;;;;;25.90;7.53;;;;;;;7.99;100.00;100729.75;5040900;28;20524;-74
2021/11/30 04:59:43;;;;;;;23.48;7.22;;;;;;;7.99;100.00;100728.84;5046893;28;20394;-73
2021/11/30 05:02:08;;;;;;;18.00;7.07;;;;;;;8.01;100.00;100722.81;5034619;28;20108;-73
2021/11/30 05:04:36;;;;;;;21.65;6.82;;;;;;;8.03;100.00;100725.47;5033588;28;20048;-73
2021/11/30 05:07:02;;;;;;;22.80;7.30;;;;;;;8.05;100.00;100719.41;5035079;28;20029;-72
2021/11/30 05:09:28;;;;;;;24.80;7.65;;;;;;;8.06;100.00;100730.78;5035976;28;20116;-73
2021/11/30 05:11:53;;;;;;;15.50;7.47;;;;;;;8.07;100.00;100722.97;5034393;28;20109;-73
2021/11/30 05:14:19;;;;;;;33.83;9.50;;;;;;;8.09;100.00;100718.63;5035810;28;20033;-72
2021/11/30 05:16:44;;;;;;;22.52;9.30;;;;;;;8.10;100.00;100719.53;5038653;28;20094;-73
2021/11/30 05:19:10;;;;;;;17.48;8.00;;;;;;;8.09;100.00;100718.63;5034998;28;20041;-73
2021/11/30 05:21:35;;;;;;;25.92;7.22;;;;;;;8.11;100.00;100737.00;5032904;28;20087;-73
2021/11/30 05:24:04;;;;;;;18.30;6.97;;;;;;;8.13;100.00;100729.22;5035485;28;20053;-74
2021/11/30 05:26:30;;;;;;;21.25;7.63;;;;;;;8.12;100.00;100715.22;5034911;28;20029;-75
2021/11/30 05:28:55;;;;;;;22.95;7.32;;;;;;;8.15;100.00;100735.38;5036526;28;20029;-73
2021/11/30 05:31:21;;;;;;;23.92;7.90;;;;;;;8.16;100.00;100722.28;5033860;28;20022;-73
2021/11/30 05:33:47;;;;;;;28.95;9.90;;;;;;;8.20;100.00;100728.50;5031415;28;20424;-74
2021/11/30 05:36:13;;;;;;;26.65;8.70;;;;;;;8.17;100.00;100721.44;5033865;28;20374;-73
2021/11/30 05:38:40;;;;;;;23.58;7.70;;;;;;;8.18;100.00;100719.72;5033711;28;20013;-72
2021/11/30 05:41:06;;;;;;;21.88;7.40;;;;;;;8.20;100.00;100728.50;5032767;28;20044;-73
2021/11/30 05:43:31;;;;;;;20.23;7.75;;;;;;;8.21;100.00;100714.56;5033479;28;20029;-73
2021/11/30 05:45:56;;;;;;;32.78;8.95;;;;;;;8.22;100.00;100739.91;5033667;28;20037;-73
2021/11/30 05:48:22;;;;;;;22.55;7.70;;;;;;;8.26;100.00;100731.25;5033014;28;20440;-74
2021/11/30 05:50:47;;;;;;;33.22;7.30;;;;;;;8.25;100.00;100732.13;5034900;28;20102;-74
2021/11/30 05:53:12;;;;;;;35.78;7.10;;;;;;;8.24;100.00;100725.97;5032890;28;20037;-74
2021/11/30 05:55:38;;;;;;;20.75;6.78;;;;;;;8.24;100.00;100736.47;5036963;28;20028;-73
2021/11/30 05:58:03;;;;;;;23.90;7.55;;;;;;;8.25;100.00;100733.00;5033209;28;20117;-73
2021/11/30 06:00:30;;;;;;;24.75;6.90;;;;;;;8.29;100.00;100726.13;5038482;28;20462;-74
2021/11/30 06:03:04;;;;;;;20.27;7.20;;;;;;;8.34;100.00;100731.44;5035744;28;20104;-72
2021/11/30 06:05:32;;;;;;;22.80;7.18;;;;;;;8.32;100.00;100735.78;5031082;28;20103;-73
2021/11/30 06:07:58;;;;;;;30.02;6.93;;;;;;;8.40;100.00;100736.84;5044347;28;20036;-73
2021/11/30 06:10:24;;;;;;;25.80;6.80;;;;;;;8.40;100.00;100735.09;5032429;28;20037;-73
2021/11/30 06:12:51;;;;;;;31.15;6.38;;;;;;;8.47;100.00;100735.31;5036648;28;20032;-74
2021/11/30 06:15:17;;;;;;;21.55;5.93;;;;;;;8.49;100.00;100725.72;5033881;28;20037;-74
2021/11/30 06:17:43;;;;;;;25.90;5.57;;;;;;;8.53;100.00;100728.47;5033347;28;20075;-73
2021/11/30 06:20:11;;;;;;;26.60;5.70;;;;;;;8.53;100.00;100730.19;5032111;28;20033;-74
2021/11/30 06:22:39;;;;;;;25.20;5.15;;;;;;;8.54;100.00;100724.09;5033319;28;20032;-74
2021/11/30 06:25:07;;;;;;;26.13;5.40;;;;;;;8.57;100.00;100730.31;5035212;28;20049;-74
2021/11/30 06:27:33;;;;;;;24.45;5.15;;;;;;;8.58;100.00;100718.94;5033224;28;20120;-73
2021/11/30 06:29:58;;;;;;;19.60;5.55;;;;;;;8.62;100.00;100729.53;5038323;28;20099;-73
2021/11/30 06:32:25;;;;;;;26.27;5.68;;;;;;;8.68;100.00;100733.16;5035718;28;20068;-76
2021/11/30 06:34:51;;;;;;;23.35;4.60;;;;;;;8.71;100.00;100733.22;5032697;28;20086;-76
2021/11/30 06:37:17;;;;;;;13.05;3.90;;;;;;;8.76;100.00;100731.59;5034734;28;20025;-73
2021/11/30 06:39:43;;;;;;;18.08;4.70;;;;;;;8.75;100.00;100729.81;5034428;28;20048;-72
2021/11/30 06:42:09;;;;;;;19.92;4.20;;;;;;;8.75;100.00;100735.06;5034954;28;20109;-73
2021/11/30 06:44:35;;;;;;;14.65;3.35;;;;;;;8.77;100.00;100733.34;5035346;28;20137;-72
2021/11/30 06:47:03;;;;;;;22.45;4.68;;;;;;;8.78;100.00;100737.75;5034488;28;20018;-72
2021/11/30 06:49:28;;;;;;;16.85;3.53;;;;;;;8.82;100.00;100733.47;5032014;28;20034;-72
2021/11/30 06:51:54;;;;;;;20.95;3.92;;;;;;;8.84;100.00;100737.00;5027131;28;20032;-71
2021/11/30 06:54:20;;;;;;;14.88;3.83;;;;;;;8.87;100.00;100744.97;5037495;28;20382;-72
2021/11/30 06:56:45;;;;;;;17.65;3.58;;;;;;;8.89;100.00;100752.84;5026188;28;20108;-73
2021/11/30 06:59:11;;;;;;;18.77;4.13;;;;;;;8.91;100.00;100738.00;5031156;28;20148;-73
2021/11/30 07:01:37;;;;;;;18.00;3.35;;;;;;;8.96;100.00;100744.25;5027623;28;20053;-74
2021/11/30 07:04:04;;;;;;;15.93;4.22;;;;;;;8.94;100.00;100746.84;5031680;28;20040;-72
2021/11/30 07:06:41;;;;;;;25.98;3.42;;;;;;;8.98;100.00;100746.91;5032172;28;20057;-73
2021/11/30 07:09:21;;;;;;;21.15;5.07;;;;;;;8.98;100.00;100747.81;5031642;28;20052;-73
2021/11/30 07:14:19;;;;;;;17.52;3.28;;;;;;;8.95;100.00;100750.34;5032486;28;20052;-72
2021/11/30 07:16:46;;;;;;;19.92;3.90;;;;;;;8.95;100.00;100739.84;5033028;28;20473;-73
2021/11/30 07:19:12;;;;;;;18.15;3.42;;;;;;;8.96;100.00;100749.50;5030161;28;20402;-72
2021/11/30 07:21:37;;;;;;;17.33;3.20;;;;;;;8.97;100.00;100738.16;5025840;28;20028;-72
2021/11/30 07:24:03;;;;;;;9.98;3.13;;;;;;;8.97;100.00;100739.88;5031487;28;20049;-72
2021/11/30 07:26:29;;;;;;;13.88;3.42;;;;;;;8.98;100.00;100746.91;5033906;28;20033;-71
2021/11/30 07:28:55;;;;;;;19.73;3.95;;;;;;;8.99;100.00;100765.31;5031401;28;20389;-71
2021/11/30 07:31:20;;;;;;;16.67;3.15;;;;;;;8.99;100.00;100754.81;5032726;28;20025;-72
2021/11/30 07:33:48;;;;;;;11.38;3.72;;;;;;;8.94;100.00;100756.47;5025383;28;20025;-73
2021/11/30 07:36:16;;;;;;;18.13;3.47;;;;;;;8.96;100.00;100760.00;5017848;28;20401;-73
2021/11/30 07:38:45;;;;;;;15.93;3.00;;;;;;;8.95;100.00;100768.72;5019848;28;20026;-73
2021/11/30 07:41:11;;;;;;;10.93;3.47;;;;;;;8.98;100.00;100755.69;5029662;28;20462;-73
2021/11/30 07:43:37;;;;;;;17.92;4.07;;;;;;;8.97;100.00;100751.28;5023299;28;20043;-72
2021/11/30 07:46:03;;;;;;;16.95;4.13;;;;;;;8.96;100.00;100760.00;5023134;28;20033;-74
2021/11/30 07:48:29;;;;;;;18.40;3.17;;;;;;;8.95;100.00;100763.47;5033390;28;20060;-73
2021/11/30 07:50:56;;;;;;;15.10;3.63;;;;;;;8.92;100.00;100763.41;5032215;28;20048;-73
2021/11/30 07:53:22;;;;;;;20.42;4.47;;;;;;;8.92;100.00;100768.66;5033346;28;20041;-72
2021/11/30 07:55:48;;;;;;;16.77;3.83;;;;;;;8.89;100.00;100772.09;5031146;28;20539;-74
2021/11/30 07:58:14;;;;;;;18.38;4.82;;;;;;;8.91;100.00;100762.53;5032851;28;20033;-73
2021/11/30 08:00:40;;;;;;;18.35;4.70;;;;;;;8.95;100.00;100758.22;5030477;28;20022;-74
2021/11/30 08:03:05;;;;;;;20.30;4.45;;;;;;;8.95;100.00;100758.22;5032416;28;20025;-73
2021/11/30 08:05:31;;;;;;;19.33;4.22;;;;;;;8.94;100.00;100761.72;5031197;28;20033;-74
2021/11/30 08:07:57;;;;;;;21.77;6.82;;;;;;;8.95;100.00;100768.72;5030823;28;20037;-74
2021/11/30 08:10:27;;;;;;;21.45;4.43;;;;;;;8.97;100.00;100759.16;5031695;28;20029;-72
2021/11/30 08:12:53;;;;;;;16.52;4.53;;;;;;;8.99;100.00;100770.56;5031821;28;20025;-73
2021/11/30 08:15:19;;;;;;;16.35;3.92;;;;;;;9.00;100.00;100767.09;5040320;28;20535;-72
2021/11/30 08:17:45;;;;;;;11.45;3.50;;;;;;;9.03;100.00;100769.78;5043124;28;20021;-73
2021/11/30 08:20:11;;;;;;;17.98;4.00;;;;;;;9.05;100.00;100764.59;5038092;28;20535;-72
2021/11/30 08:22:37;;;;;;;12.63;3.80;;;;;;;9.08;100.00;100776.00;5035493;28;20033;-72
2021/11/30 08:25:04;;;;;;;17.77;4.50;;;;;;;9.08;100.00;100781.25;5032776;28;20034;-72
2021/11/30 08:27:30;;;;;;;16.77;3.55;;;;;;;9.14;100.00;100763.88;5030137;28;20135;-72
2021/11/30 08:29:56;;;;;;;20.60;4.10;;;;;;;9.15;100.00;100770.91;5038665;28;20492;-72
2021/11/30 08:32:23;;;;;;;26.92;4.32;;;;;;;9.15;100.00;100760.41;5035788;28;20036;-73
2021/11/30 08:34:51;;;;;;;21.90;4.25;;;;;;;9.16;100.00;100770.06;5048890;28;20100;-71
2021/11/30 08:37:17;;;;;;;14.57;3.55;;;;;;;9.14;100.00;100769.13;5023054;28;20026;-73
2021/11/30 08:39:44;;;;;;;19.83;4.53;;;;;;;9.16;100.00;100770.06;5027811;28;20060;-72
2021/11/30 08:42:11;;;;;;;19.42;3.28;;;;;;;9.15;100.00;100766.53;5030909;28;20025;-73
2021/11/30 08:44:37;;;;;;;20.50;3.47;;;;;;;9.15;100.00;100769.16;5030892;28;20389;-73
2021/11/30 08:47:06;;;;;;;16.10;3.78;;;;;;;9.16;100.00;100772.69;5032836;28;20042;-73
2021/11/30 08:49:38;;;;;;;16.55;3.90;;;;;;;9.18;100.00;100777.09;5031694;28;20021;-72
2021/11/30 08:52:07;;;;;;;16.95;3.35;;;;;;;9.22;100.00;100776.28;5029502;28;20048;-73
2021/11/30 08:54:33;;;;;;;14.65;3.92;;;;;;;9.25;100.00;100768.50;5046079;28;20036;-74
2021/11/30 08:57:06;;;;;;;13.55;3.22;;;;;;;9.25;100.00;100775.47;5038010;28;20099;-72
2021/11/30 08:59:31;;;;;;;12.43;3.20;;;;;;;9.28;100.00;100779.06;5033546;28;20374;-72
2021/11/30 09:01:59;;;;;;;18.60;3.38;;;;;;;9.33;100.00;100792.28;5032128;28;20048;-73
2021/11/30 09:04:25;;;;;;;11.98;3.10;;;;;;;9.37;100.00;100790.59;5032397;28;20091;-72
2021/11/30 09:06:51;;;;;;;16.92;2.92;;;;;;;9.35;100.00;100795.84;5033398;28;20049;-73
2021/11/30 09:09:18;;;;;;;16.20;3.03;;;;;;;9.35;100.00;100785.34;5030304;28;20076;-73
2021/11/30 09:11:44;;;;;;;34.50;3.80;;;;;;;9.39;100.00;100787.16;5028032;28;20033;-74
2021/11/30 09:14:10;;;;;;;14.38;3.50;;;;;;;9.37;100.00;100782.72;5031723;28;20125;-73
2021/11/30 09:16:36;;;;;;;14.27;2.67;;;;;;;9.40;100.00;100798.53;5041113;28;20407;-73
2021/11/30 09:19:04;;;;;;;19.10;3.80;;;;;;;9.38;100.00;100801.13;5032901;28;20087;-74
2021/11/30 09:21:30;;;;;;;9.57;2.78;;;;;;;9.44;100.00;100801.28;5033786;28;20049;-73
2021/11/30 09:23:56;;;;;;;15.50;3.60;;;;;;;9.48;100.00;100811.84;5034583;28;20509;-74
2021/11/30 09:26:24;;;;;;;15.20;3.72;;;;;;;9.50;100.00;100804.91;5035152;28;20436;-73
2021/11/30 09:28:49;;;;;;;16.27;2.95;;;;;;;9.54;100.00;100806.72;5036310;28;20030;-72
2021/11/30 09:31:16;;;;;;;13.10;3.20;;;;;;;9.58;100.00;100803.31;5034351;28;20036;-73
2021/11/30 09:33:43;;;;;;;12.75;3.33;;;;;;;9.60;100.00;100807.75;5036623;28;20041;-73
2021/11/30 09:36:11;;;;;;;12.32;2.92;;;;;;;9.63;100.00;100809.53;5049729;28;20393;-72
2021/11/30 09:38:40;;;;;;;14.88;2.88;;;;;;;9.62;100.00;100800.75;5038997;28;20025;-74
2021/11/30 09:41:06;;;;;;;16.50;3.22;;;;;;;9.63;100.00;100799.03;5035758;28;20052;-73
2021/11/30 09:43:34;;;;;;;19.77;4.07;;;;;;;9.64;100.00;100790.28;5039479;28;20032;-73
2021/11/30 09:46:00;;;;;;;11.35;2.95;;;;;;;9.63;100.00;100799.03;5040953;28;20405;-74
2021/11/30 09:48:27;;;;;;;12.60;3.45;;;;;;;9.67;100.00;100806.13;5042941;28;20026;-73
2021/11/30 09:50:53;;;;;;;16.95;3.50;;;;;;;9.73;100.00;100813.22;5042986;28;20025;-73
2021/11/30 09:53:20;;;;;;;17.10;3.65;;;;;;;9.70;100.00;100808.78;5044785;28;20489;-73
2021/11/30 09:55:47;;;;;;;14.25;3.70;;;;;;;9.70;100.00;100811.41;5036173;28;20036;-73
2021/11/30 09:58:15;;;;;;;23.48;3.85;;;;;;;9.74;100.00;100820.22;5042099;28;20462;-75
2021/11/30 10:00:42;;;;;;;21.70;3.50;;;;;;;9.73;100.00;100818.50;5036071;28;20104;-74
2021/11/30 10:03:09;;;;;;;9.48;3.88;;;;;;;9.72;100.00;100822.84;5034392;28;20079;-74
2021/11/30 10:05:35;;;;;;;15.95;3.50;;;;;;;9.69;100.00;100814.03;5034087;28;20049;-74
2021/11/30 10:08:01;;;;;;;12.95;3.60;;;;;;;9.70;100.00;100819.31;5033973;28;20124;-75
2021/11/30 10:10:34;;;;;;;14.55;3.33;;;;;;;9.70;100.00;100815.78;5034887;28;20575;-74
2021/11/30 10:12:59;;;;;;;16.77;4.05;;;;;;;9.68;100.00;100822.75;5032120;28;20022;-74
2021/11/30 10:15:27;;;;;;;17.48;3.15;;;;;;;9.68;100.00;100817.50;5034550;28;20075;-74
2021/11/30 10:18:16;;;;;;;12.18;2.80;;;;;;;9.70;100.00;100821.94;5035216;28;20699;-74
2021/11/30 10:20:42;;;;;;;10.63;2.78;;;;;;;9.70;100.00;100821.94;5052660;28;20419;-73
2021/11/30 10:23:08;;;;;;;22.98;3.50;;;;;;;9.72;100.00;100814.94;5039116;28;20029;-74
2021/11/30 10:25:36;;;;;;;11.80;2.40;;;;;;;9.74;100.00;100821.13;5045088;28;20072;-74
2021/11/30 10:28:11;;;;;;;16.83;3.50;;;;;;;9.76;100.00;100815.91;5047919;28;20033;-74
2021/11/30 10:30:43;;;;;;;14.63;3.42;;;;;;;9.76;100.00;100819.41;5038464;28;20040;-74
2021/11/30 10:33:16;;;;;;;12.02;2.42;;;;;;;9.73;100.00;100834.25;5041532;28;20530;-73
2021/11/30 10:35:42;;;;;;;10.07;3.33;;;;;;;9.70;100.00;100829.81;5032697;28;20116;-74
2021/11/30 10:38:08;;;;;;;22.35;4.03;;;;;;;9.63;100.00;100827.94;5035363;28;20387;-75
2021/11/30 10:40:39;;;;;;;13.48;3.53;;;;;;;9.56;100.00;100826.00;5045717;28;20037;-74
2021/11/30 10:43:10;;;;;;;13.43;4.18;;;;;;;9.58;100.00;100822.56;5031068;28;20061;-74
2021/11/30 10:45:45;;;;;;;14.75;3.53;;;;;;;9.58;100.00;100819.06;5034270;28;20045;-74
2021/11/30 10:48:11;;;;;;;14.05;3.97;;;;;;;9.58;100.00;100819.06;5032675;28;20544;-76
2021/11/30 10:50:57;;;;;;;14.98;3.72;;;;;;;9.57;100.00;100812.91;5034472;28;20034;-76
2021/11/30 10:53:26;;;;;;;17.77;4.15;;;;;;;9.55;100.00;100813.72;5025258;28;20040;-75
2021/11/30 10:55:57;;;;;;;14.18;3.78;;;;;;;9.51;100.00;100809.25;5031921;28;20026;-74
2021/11/30 10:58:26;;;;;;;16.65;4.45;;;;;;;9.48;100.00;100811.84;5030893;28;20112;-73
2021/11/30 11:00:53;;;;;;;13.30;3.63;;;;;;;9.45;100.00;100813.56;5030813;28;20029;-74
2021/11/30 11:03:23;;;;;;;24.45;4.13;;;;;;;9.42;100.00;100810.84;5033036;28;20114;-74
2021/11/30 11:08:50;;;;;;;9.77;3.92;;;;;;;9.44;100.00;100806.53;5044892;28;20040;-74
2021/11/30 11:11:21;;;;;;;17.50;4.80;;;;;;;9.44;100.00;100822.28;5050186;28;20052;-73
2021/11/30 11:13:47;;;;;;;20.13;3.83;;;;;;;9.45;100.00;100813.56;5032631;28;20437;-74
2021/11/30 11:16:26;;;;;;;17.13;3.88;;;;;;;9.45;100.00;100805.69;5037783;28;20036;-74
2021/11/30 11:18:55;;;;;;;18.27;4.35;;;;;;;9.50;100.00;100803.13;5045212;28;20024;-74
2021/11/30 11:21:23;;;;;;;18.38;3.95;;;;;;;9.53;100.00;100804.94;5039328;28;20013;-74
2021/11/30 11:23:59;;;;;;;20.88;4.13;;;;;;;9.53;100.00;100792.69;5023402;28;20042;-74
2021/11/30 11:26:28;;;;;;;19.90;4.20;;;;;;;9.52;100.00;100793.56;5020488;28;20042;-75
2021/11/30 11:28:58;;;;;;;17.02;4.63;;;;;;;9.52;100.00;100803.16;5031422;28;20262;-75
2021/11/30 11:31:25;;;;;;;11.32;3.88;;;;;;;9.52;100.00;100805.78;5022196;28;20060;-74
2021/11/30 11:33:52;;;;;;;12.40;4.55;;;;;;;9.51;100.00;100796.13;5037128;28;20469;-74
2021/11/30 11:36:19;;;;;;;14.32;4.68;;;;;;;9.48;100.00;100796.06;5032428;28;20519;-73